Time;durP1;ratioP1;P1;durP2;ratioP2;P2;SDS_P1;SDS_P2;PMS_P1;PMS_P2;Temp;Humidity;BMP_temperature;BMP_pressure;BME280_temperature;BME280_humidity;BME280_pressure;Samples;Min_cycle;Max_cycle;Signal;HPM_P1;HPM_P2
2022/03/06 00:01:11;;;;;;;;;;;1.20;99.30;;;;;;4981194;28;19977;-79
2022/03/06 00:03:44;;;;;;;;;;;1.20;99.30;;;;;;4976120;28;19957;-79
2022/03/06 00:06:13;;;;;;;;;;;1.20;99.40;;;;;;4975716;28;21873;-79
2022/03/06 00:08:40;;;;;;;;;;;1.20;99.30;;;;;;4990737;28;19926;-79
2022/03/06 00:11:08;;;;;;;;;;;1.20;99.40;;;;;;4978093;28;20043;-79
2022/03/06 00:13:35;;;;;;;;;;;1.20;99.30;;;;;;4976013;28;19932;-79
2022/03/06 00:16:04;;;;;;;;;;;1.20;99.30;;;;;;4975232;28;19938;-79
2022/03/06 00:18:31;;;;;;;;;;;1.20;99.30;;;;;;4974500;28;19973;-80
2022/03/06 00:20:59;;;;;;;;;;;1.20;99.30;;;;;;4979924;28;19930;-80
2022/03/06 00:23:26;;;;;;;;;;;1.20;99.30;;;;;;4977062;28;20505;-79
2022/03/06 00:25:54;;;;;;;;;;;1.10;99.30;;;;;;4978412;28;19941;-79
2022/03/06 00:28:28;;;;;;;;;;;1.20;99.30;;;;;;4969141;28;19934;-79
2022/03/06 00:31:01;;;;;;;;;;;1.10;99.30;;;;;;4972164;28;19948;-79
2022/03/06 00:33:32;;;;;;;;;;;1.10;99.30;;;;;;4969884;28;19934;-79
2022/03/06 00:36:00;;;;;;;;;;;1.10;99.30;;;;;;4971547;28;19934;-79
2022/03/06 00:38:28;;;;;;;;;;;1.10;99.30;;;;;;4993712;28;19930;-79
2022/03/06 00:40:56;;;;;;;;;;;1.10;99.30;;;;;;4971420;28;20057;-80
2022/03/06 00:43:23;;;;;;;;;;;1.10;99.30;;;;;;4975897;28;19937;-79
2022/03/06 00:45:50;;;;;;;;;;;1.10;99.30;;;;;;4977867;28;19926;-79
2022/03/06 00:48:20;;;;;;;;;;;1.00;99.30;;;;;;4980978;28;19937;-80
2022/03/06 00:50:50;;;;;;;;;;;1.00;99.30;;;;;;4982522;28;19933;-79
2022/03/06 00:53:20;;;;;;;;;;;1.00;99.40;;;;;;4975858;28;19941;-79
2022/03/06 00:55:50;;;;;;;;;;;1.00;99.30;;;;;;4977881;28;19926;-79
2022/03/06 00:58:17;;;;;;;;;;;1.00;99.40;;;;;;4981179;28;19934;-79
2022/03/06 01:00:46;;;;;;;;;;;1.00;99.30;;;;;;4973166;28;20354;-79
2022/03/06 01:03:13;;;;;;;;;;;0.90;99.30;;;;;;4978554;28;19932;-79
2022/03/06 01:05:41;;;;;;;;;;;0.90;99.30;;;;;;4975201;28;19933;-79
2022/03/06 01:08:15;;;;;;;;;;;1.00;99.40;;;;;;4981679;28;20401;-79
2022/03/06 01:10:44;;;;;;;;;;;0.90;99.30;;;;;;4975085;28;20346;-79
2022/03/06 01:13:12;;;;;;;;;;;0.90;99.30;;;;;;4979059;28;19949;-79
2022/03/06 01:15:40;;;;;;;;;;;0.90;99.30;;;;;;4993044;28;20345;-79
2022/03/06 01:18:13;;;;;;;;;;;0.90;99.40;;;;;;4977938;28;19933;-79
2022/03/06 01:20:41;;;;;;;;;;;0.90;99.40;;;;;;4979768;28;19948;-79
2022/03/06 01:23:08;;;;;;;;;;;0.90;99.40;;;;;;4975773;28;20016;-79
2022/03/06 01:25:37;;;;;;;;;;;0.90;99.40;;;;;;4984385;28;19933;-79
2022/03/06 01:28:04;;;;;;;;;;;0.90;99.40;;;;;;4975608;28;19926;-79
2022/03/06 01:30:31;;;;;;;;;;;0.80;99.40;;;;;;4979030;28;19961;-79
2022/03/06 01:32:58;;;;;;;;;;;0.80;99.40;;;;;;4973598;28;19926;-79
2022/03/06 01:35:25;;;;;;;;;;;0.80;99.40;;;;;;4974985;28;19993;-79
2022/03/06 01:37:55;;;;;;;;;;;0.80;99.40;;;;;;4978108;28;19926;-79
2022/03/06 01:40:22;;;;;;;;;;;0.80;99.40;;;;;;4977068;28;20044;-79
2022/03/06 01:42:51;;;;;;;;;;;0.80;99.50;;;;;;4975592;28;19961;-79
2022/03/06 01:45:20;;;;;;;;;;;0.80;99.40;;;;;;4981363;28;20017;-79
2022/03/06 01:47:47;;;;;;;;;;;0.80;99.40;;;;;;4988422;28;19929;-79
2022/03/06 01:50:15;;;;;;;;;;;0.80;99.50;;;;;;4980251;28;19925;-79
2022/03/06 01:52:43;;;;;;;;;;;0.70;99.40;;;;;;4971461;28;19933;-79
2022/03/06 01:55:10;;;;;;;;;;;0.70;99.40;;;;;;4983598;28;19997;-79
2022/03/06 01:57:39;;;;;;;;;;;0.70;99.50;;;;;;4979399;28;19926;-79
2022/03/06 02:00:10;;;;;;;;;;;0.70;99.50;;;;;;4977248;28;20717;-79
2022/03/06 02:02:40;;;;;;;;;;;0.70;99.50;;;;;;4977476;28;19925;-79
2022/03/06 02:05:08;;;;;;;;;;;0.70;99.50;;;;;;4978666;28;19926;-79
2022/03/06 02:07:35;;;;;;;;;;;0.70;99.50;;;;;;4977662;28;19941;-79
2022/03/06 02:10:08;;;;;;;;;;;0.70;99.60;;;;;;4980367;28;19980;-79
2022/03/06 02:12:36;;;;;;;;;;;0.70;99.50;;;;;;4974576;28;19926;-79
2022/03/06 02:15:04;;;;;;;;;;;0.70;99.60;;;;;;4975058;28;19988;-79
2022/03/06 02:17:33;;;;;;;;;;;0.70;99.50;;;;;;4980537;28;20493;-79
2022/03/06 02:20:01;;;;;;;;;;;0.70;99.70;;;;;;4972538;28;19941;-79
2022/03/06 02:22:30;;;;;;;;;;;0.70;99.60;;;;;;4972835;28;20314;-79
2022/03/06 02:24:57;;;;;;;;;;;0.60;99.50;;;;;;4975307;28;19929;-79
2022/03/06 02:27:25;;;;;;;;;;;0.60;99.50;;;;;;4981036;28;19980;-79
2022/03/06 02:29:52;;;;;;;;;;;0.60;99.60;;;;;;4977732;28;19930;-79
2022/03/06 02:32:20;;;;;;;;;;;0.60;99.60;;;;;;4979722;28;19927;-79
2022/03/06 02:34:48;;;;;;;;;;;0.60;99.60;;;;;;4977363;28;19937;-79
2022/03/06 02:37:17;;;;;;;;;;;0.60;99.60;;;;;;4979758;28;19932;-79
2022/03/06 02:39:46;;;;;;;;;;;0.60;99.60;;;;;;4980650;28;19932;-79
2022/03/06 02:42:23;;;;;;;;;;;0.60;99.70;;;;;;4981903;28;20444;-79
2022/03/06 02:44:49;;;;;;;;;;;0.60;99.70;;;;;;4976866;28;20313;-79
2022/03/06 02:47:16;;;;;;;;;;;0.60;99.70;;;;;;4972564;28;19926;-79
2022/03/06 02:49:43;;;;;;;;;;;0.60;99.60;;;;;;4975659;28;19930;-79
2022/03/06 02:52:10;;;;;;;;;;;0.50;99.60;;;;;;4981932;28;19954;-79
2022/03/06 02:54:37;;;;;;;;;;;0.50;99.70;;;;;;4973991;28;19960;-79
2022/03/06 02:57:07;;;;;;;;;;;0.50;99.70;;;;;;4983575;28;19948;-79
2022/03/06 02:59:34;;;;;;;;;;;0.50;99.70;;;;;;4983190;28;19937;-79
2022/03/06 03:02:01;;;;;;;;;;;0.50;99.70;;;;;;4986766;28;19976;-79
2022/03/06 03:04:28;;;;;;;;;;;0.50;99.70;;;;;;4982634;28;19926;-79
2022/03/06 03:06:56;;;;;;;;;;;0.50;99.80;;;;;;4988728;28;19961;-79
2022/03/06 03:09:22;;;;;;;;;;;0.40;99.80;;;;;;4984292;28;19926;-79
2022/03/06 03:11:50;;;;;;;;;;;0.50;99.70;;;;;;4984181;28;19930;-79
2022/03/06 03:14:19;;;;;;;;;;;0.50;99.80;;;;;;4989977;28;19976;-79
2022/03/06 03:16:46;;;;;;;;;;;0.50;99.80;;;;;;4982970;28;19969;-79
2022/03/06 03:19:13;;;;;;;;;;;0.50;99.80;;;;;;4982745;28;20685;-79
2022/03/06 03:21:44;;;;;;;;;;;0.50;99.80;;;;;;4980807;28;19965;-79
2022/03/06 03:24:12;;;;;;;;;;;0.50;99.90;;;;;;4978871;28;19933;-79
2022/03/06 03:26:39;;;;;;;;;;;0.40;99.80;;;;;;4984542;28;19973;-80
2022/03/06 03:29:06;;;;;;;;;;;0.40;99.80;;;;;;4982678;28;19926;-79
2022/03/06 03:31:34;;;;;;;;;;;0.40;99.80;;;;;;4972718;28;21422;-79
2022/03/06 03:34:01;;;;;;;;;;;0.40;99.80;;;;;;4983495;28;19934;-79
2022/03/06 03:36:28;;;;;;;;;;;0.40;99.80;;;;;;4984160;28;19925;-80
2022/03/06 03:39:05;;;;;;;;;;;0.40;99.80;;;;;;4980423;28;20341;-79
2022/03/06 03:41:32;;;;;;;;;;;0.40;99.80;;;;;;4982480;28;19930;-80
2022/03/06 03:43:59;;;;;;;;;;;0.40;99.90;;;;;;4985053;28;19934;-79
2022/03/06 03:46:29;;;;;;;;;;;0.40;99.80;;;;;;4984665;28;19925;-79
2022/03/06 03:48:58;;;;;;;;;;;0.30;99.80;;;;;;4982085;28;19961;-79
2022/03/06 03:51:25;;;;;;;;;;;0.40;99.80;;;;;;4982553;28;20449;-79
2022/03/06 03:53:52;;;;;;;;;;;0.30;99.80;;;;;;4979117;28;19980;-79
2022/03/06 03:56:22;;;;;;;;;;;0.30;99.80;;;;;;4986012;28;19938;-79
2022/03/06 03:58:52;;;;;;;;;;;0.40;99.90;;;;;;4983478;28;19960;-79
2022/03/06 04:01:19;;;;;;;;;;;0.30;99.80;;;;;;4981332;28;19937;-79
2022/03/06 04:03:46;;;;;;;;;;;0.30;99.80;;;;;;4983468;28;19940;-79
2022/03/06 04:06:14;;;;;;;;;;;0.30;99.80;;;;;;4986166;28;19925;-79
2022/03/06 04:08:47;;;;;;;;;;;0.30;99.90;;;;;;4984280;28;20524;-79
2022/03/06 04:11:14;;;;;;;;;;;0.30;99.80;;;;;;4982323;28;19930;-79
2022/03/06 04:13:41;;;;;;;;;;;0.30;99.90;;;;;;4984966;28;19964;-79
2022/03/06 04:16:08;;;;;;;;;;;0.30;99.90;;;;;;4982927;28;19930;-79
2022/03/06 04:18:35;;;;;;;;;;;0.30;99.90;;;;;;4976111;28;19941;-79
2022/03/06 04:21:02;;;;;;;;;;;0.20;99.90;;;;;;4983663;28;19930;-79
2022/03/06 04:23:30;;;;;;;;;;;0.20;99.90;;;;;;4977774;28;19926;-79
2022/03/06 04:25:57;;;;;;;;;;;0.20;99.80;;;;;;4981172;28;19929;-79
2022/03/06 04:28:24;;;;;;;;;;;0.20;99.80;;;;;;4980335;28;19926;-79
2022/03/06 04:30:51;;;;;;;;;;;0.20;99.90;;;;;;4998973;28;19984;-79
2022/03/06 04:33:18;;;;;;;;;;;0.20;99.90;;;;;;4984919;28;21290;-79
2022/03/06 04:35:45;;;;;;;;;;;0.20;99.90;;;;;;4979707;28;19957;-79
2022/03/06 04:38:12;;;;;;;;;;;0.20;99.90;;;;;;4982676;28;19925;-79
2022/03/06 04:40:41;;;;;;;;;;;0.20;99.90;;;;;;4985739;28;19933;-79
2022/03/06 04:43:08;;;;;;;;;;;0.20;99.90;;;;;;4980402;28;19926;-79
2022/03/06 04:45:35;;;;;;;;;;;0.20;99.90;;;;;;4988646;28;19938;-80
2022/03/06 04:48:02;;;;;;;;;;;0.20;99.90;;;;;;4982992;28;19925;-79
2022/03/06 04:50:29;;;;;;;;;;;0.20;99.90;;;;;;4981461;28;19925;-80
2022/03/06 04:52:56;;;;;;;;;;;0.20;99.90;;;;;;4980359;28;19926;-79
2022/03/06 04:55:23;;;;;;;;;;;0.20;99.90;;;;;;4980252;28;20687;-79
2022/03/06 04:57:51;;;;;;;;;;;0.10;99.90;;;;;;4978486;28;20344;-79
2022/03/06 05:00:18;;;;;;;;;;;0.10;99.90;;;;;;4984413;28;19934;-79
2022/03/06 05:02:46;;;;;;;;;;;0.10;99.90;;;;;;4981586;28;20029;-79
2022/03/06 05:05:13;;;;;;;;;;;0.10;99.90;;;;;;4983050;28;20320;-79
2022/03/06 05:07:40;;;;;;;;;;;0.10;99.90;;;;;;4979210;28;19933;-79
2022/03/06 05:10:09;;;;;;;;;;;0.10;99.90;;;;;;4982680;28;20523;-79
2022/03/06 05:12:36;;;;;;;;;;;0.10;99.90;;;;;;4983710;28;20010;-80
2022/03/06 05:15:06;;;;;;;;;;;0.10;99.90;;;;;;4978011;28;19957;-80
2022/03/06 05:17:32;;;;;;;;;;;0.10;99.90;;;;;;4987806;28;19933;-79
2022/03/06 05:19:59;;;;;;;;;;;0.10;99.90;;;;;;4984892;28;19945;-79
2022/03/06 05:22:26;;;;;;;;;;;0.10;99.90;;;;;;4971998;28;19941;-79
2022/03/06 05:24:53;;;;;;;;;;;0.10;99.90;;;;;;4978881;28;19942;-79
2022/03/06 05:27:20;;;;;;;;;;;0.00;99.90;;;;;;4984315;28;19925;-79
2022/03/06 05:29:47;;;;;;;;;;;0.00;99.90;;;;;;4979055;28;19933;-79
2022/03/06 05:32:15;;;;;;;;;;;0.00;99.90;;;;;;4993398;22;19934;-81
2022/03/06 05:34:43;;;;;;;;;;;0.00;99.90;;;;;;4962716;28;19926;-81
2022/03/06 05:37:10;;;;;;;;;;;0.00;99.90;;;;;;4969173;28;19945;-81
2022/03/06 05:39:39;;;;;;;;;;;0.00;99.90;;;;;;4979704;28;19934;-81
2022/03/06 05:42:06;;;;;;;;;;;0.00;99.90;;;;;;4975368;28;19934;-81
2022/03/06 05:44:33;;;;;;;;;;;0.00;99.90;;;;;;4970249;28;19933;-81
2022/03/06 05:47:03;;;;;;;;;;;0.00;99.90;;;;;;4957904;28;19930;-81
2022/03/06 05:49:32;;;;;;;;;;;0.00;99.90;;;;;;4959498;28;19933;-81
2022/03/06 05:51:59;;;;;;;;;;;0.00;99.90;;;;;;4974336;28;19980;-81
2022/03/06 05:54:29;;;;;;;;;;;0.00;99.90;;;;;;4976213;28;19934;-80
2022/03/06 05:56:56;;;;;;;;;;;0.00;99.90;;;;;;4977455;28;19926;-80
2022/03/06 05:59:26;;;;;;;;;;;0.00;99.90;;;;;;4959599;28;19926;-80
2022/03/06 06:02:00;;;;;;;;;;;-0.10;99.90;;;;;;4955302;28;19932;-80
2022/03/06 06:04:27;;;;;;;;;;;0.00;99.90;;;;;;4961297;28;19938;-80
2022/03/06 06:06:56;;;;;;;;;;;-0.10;99.90;;;;;;4981945;28;19974;-81
2022/03/06 06:09:25;;;;;;;;;;;0.00;99.90;;;;;;4961975;28;19934;-81
2022/03/06 06:11:52;;;;;;;;;;;-0.10;99.90;;;;;;4982467;28;19926;-81
2022/03/06 06:14:19;;;;;;;;;;;-0.10;99.90;;;;;;4976717;28;19948;-80
2022/03/06 06:16:46;;;;;;;;;;;-0.10;99.90;;;;;;4972385;28;19926;-80
2022/03/06 06:19:13;;;;;;;;;;;0.00;99.90;;;;;;4976124;28;19933;-81
2022/03/06 06:21:43;;;;;;;;;;;-0.10;99.90;;;;;;4971595;28;19925;-80
2022/03/06 06:24:14;;;;;;;;;;;-0.10;99.90;;;;;;4975828;28;19926;-81
2022/03/06 06:26:41;;;;;;;;;;;-0.10;99.90;;;;;;4975285;28;19934;-80
2022/03/06 06:29:10;;;;;;;;;;;-0.10;99.90;;;;;;4972176;28;19930;-81
2022/03/06 06:31:36;;;;;;;;;;;-0.10;99.90;;;;;;4956722;28;19933;-81
2022/03/06 06:34:07;;;;;;;;;;;-0.10;99.90;;;;;;4973546;28;19933;-80
2022/03/06 06:36:34;;;;;;;;;;;-0.20;99.90;;;;;;4978291;28;19934;-80
2022/03/06 06:39:03;;;;;;;;;;;-0.20;99.90;;;;;;4980805;28;19930;-80
2022/03/06 06:41:32;;;;;;;;;;;-0.20;99.90;;;;;;4975867;28;19945;-80
2022/03/06 06:43:59;;;;;;;;;;;-0.20;99.90;;;;;;4987649;28;19934;-81
2022/03/06 06:46:26;;;;;;;;;;;-0.20;99.90;;;;;;4960506;28;19933;-80
2022/03/06 06:48:53;;;;;;;;;;;-0.20;99.90;;;;;;4959111;28;19934;-80
2022/03/06 06:51:20;;;;;;;;;;;-0.20;99.90;;;;;;4974360;28;19926;-81
2022/03/06 06:53:47;;;;;;;;;;;-0.20;99.90;;;;;;4976285;28;19934;-80
2022/03/06 06:56:14;;;;;;;;;;;-0.20;99.90;;;;;;4982332;28;19938;-80
2022/03/06 06:58:43;;;;;;;;;;;-0.30;99.90;;;;;;4971427;28;19934;-80
2022/03/06 07:01:09;;;;;;;;;;;-0.30;99.90;;;;;;4961289;28;19926;-79
2022/03/06 07:03:37;;;;;;;;;;;-0.20;99.90;;;;;;4963202;28;19934;-80
2022/03/06 07:06:04;;;;;;;;;;;-0.30;99.90;;;;;;4963456;28;19983;-80
2022/03/06 07:08:31;;;;;;;;;;;-0.30;99.90;;;;;;4981465;28;21078;-80
2022/03/06 07:10:58;;;;;;;;;;;-0.20;99.90;;;;;;4958142;28;19933;-80
2022/03/06 07:13:24;;;;;;;;;;;-0.30;99.90;;;;;;4986505;28;20312;-81
2022/03/06 07:15:53;;;;;;;;;;;-0.30;99.90;;;;;;4967104;28;19930;-80
2022/03/06 07:18:20;;;;;;;;;;;-0.30;99.90;;;;;;4982398;28;20380;-80
2022/03/06 07:20:47;;;;;;;;;;;-0.30;99.90;;;;;;4978882;28;19930;-81
2022/03/06 07:23:14;;;;;;;;;;;-0.30;99.90;;;;;;4974968;28;19949;-80
2022/03/06 07:25:42;;;;;;;;;;;-0.30;99.90;;;;;;4971363;28;19934;-81
2022/03/06 07:28:09;;;;;;;;;;;-0.30;99.90;;;;;;4979948;28;19945;-80
2022/03/06 07:30:36;;;;;;;;;;;-0.30;99.90;;;;;;4981382;28;19926;-80
2022/03/06 07:33:04;;;;;;;;;;;-0.30;99.90;;;;;;4975406;28;19930;-81
2022/03/06 07:35:31;;;;;;;;;;;-0.30;99.90;;;;;;4965537;28;19933;-82
2022/03/06 07:37:58;;;;;;;;;;;-0.30;99.90;;;;;;4969448;28;19961;-81
2022/03/06 07:40:25;;;;;;;;;;;-0.30;99.90;;;;;;4986812;28;19933;-82
2022/03/06 07:42:52;;;;;;;;;;;-0.20;99.90;;;;;;4981535;28;19942;-82
2022/03/06 07:45:22;;;;;;;;;;;-0.20;99.90;;;;;;4971307;28;19933;-82
2022/03/06 07:47:49;;;;;;;;;;;-0.30;99.90;;;;;;4978550;28;19926;-81
2022/03/06 07:50:18;;;;;;;;;;;-0.30;99.90;;;;;;4981154;28;20406;-81
2022/03/06 07:52:45;;;;;;;;;;;-0.20;99.90;;;;;;4973438;28;19926;-81
2022/03/06 07:55:15;;;;;;;;;;;-0.10;99.90;;;;;;4978461;28;19957;-82
2022/03/06 07:57:43;;;;;;;;;;;-0.10;99.90;;;;;;4980564;28;19934;-82
2022/03/06 08:00:12;;;;;;;;;;;-0.10;99.90;;;;;;4984239;28;20394;-83
2022/03/06 08:09:02;;;;;;;;;;;-0.20;99.90;;;;;;4942771;28;19981;-90
2022/03/06 08:11:29;;;;;;;;;;;-0.20;99.90;;;;;;4947053;28;19934;-81
2022/03/06 08:13:56;;;;;;;;;;;-0.20;99.90;;;;;;4927515;28;20022;-80
2022/03/06 08:16:23;;;;;;;;;;;-0.30;99.90;;;;;;4922643;29;19931;-90
2022/03/06 08:18:50;;;;;;;;;;;-0.30;99.90;;;;;;4928195;29;19927;-89
2022/03/06 08:21:17;;;;;;;;;;;-0.20;99.90;;;;;;4933390;29;19935;-81
2022/03/06 08:23:44;;;;;;;;;;;-0.30;99.90;;;;;;4928019;29;19941;-83
2022/03/06 08:26:12;;;;;;;;;;;-0.30;99.90;;;;;;4932691;29;19977;-81
2022/03/06 08:28:39;;;;;;;;;;;-0.30;99.90;;;;;;4928880;29;20007;-79
2022/03/06 08:31:06;;;;;;;;;;;-0.20;99.90;;;;;;4923154;29;20029;-78
2022/03/06 08:33:33;;;;;;;;;;;-0.20;99.90;;;;;;4922757;29;20348;-80
2022/03/06 08:36:00;;;;;;;;;;;-0.20;99.90;;;;;;4913543;29;19933;-81
2022/03/06 08:38:27;;;;;;;;;;;-0.20;99.90;;;;;;4925332;29;19935;-81
2022/03/06 08:40:54;;;;;;;;;;;-0.20;99.90;;;;;;4921299;29;19962;-84
2022/03/06 08:43:24;;;;;;;;;;;-0.20;99.90;;;;;;4921279;29;19967;-86
2022/03/06 08:45:51;;;;;;;;;;;-0.20;99.90;;;;;;4925832;29;19938;-79
2022/03/06 08:48:18;;;;;;;;;;;-0.20;99.90;;;;;;4922734;29;20025;-79
2022/03/06 08:50:45;;;;;;;;;;;-0.20;99.90;;;;;;4920930;29;20026;-79
2022/03/06 08:53:12;;;;;;;;;;;-0.20;99.90;;;;;;4926675;29;20399;-79
2022/03/06 08:55:38;;;;;;;;;;;-0.20;99.90;;;;;;4923565;29;19982;-79
2022/03/06 08:58:05;;;;;;;;;;;-0.20;99.90;;;;;;4928713;29;19946;-79
2022/03/06 09:00:34;;;;;;;;;;;-0.20;99.90;;;;;;4926339;29;20390;-79
2022/03/06 09:03:01;;;;;;;;;;;-0.20;99.90;;;;;;4926684;29;19965;-79
2022/03/06 09:05:28;;;;;;;;;;;-0.10;99.90;;;;;;4924812;29;19927;-79
2022/03/06 09:07:56;;;;;;;;;;;-0.20;99.90;;;;;;4920618;29;19982;-79
2022/03/06 09:10:23;;;;;;;;;;;-0.10;99.90;;;;;;4923158;29;20347;-79
2022/03/06 09:12:50;;;;;;;;;;;-0.10;99.90;;;;;;4927742;29;19973;-80
2022/03/06 09:15:17;;;;;;;;;;;-0.10;99.90;;;;;;4920926;29;19938;-80
2022/03/06 09:17:45;;;;;;;;;;;0.00;99.90;;;;;;4922857;29;19942;-81
2022/03/06 09:20:12;;;;;;;;;;;0.30;99.90;;;;;;4926819;29;20010;-79
2022/03/06 09:22:39;;;;;;;;;;;0.40;99.90;;;;;;4927046;29;20414;-80
2022/03/06 09:25:07;;;;;;;;;;;0.50;99.90;;;;;;4923643;29;19927;-79
2022/03/06 09:27:35;;;;;;;;;;;0.60;99.90;;;;;;4926240;29;19927;-79
2022/03/06 09:30:02;;;;;;;;;;;0.60;99.90;;;;;;4923442;29;19939;-79
2022/03/06 09:32:29;;;;;;;;;;;0.60;99.90;;;;;;4908496;29;19931;-79
2022/03/06 09:34:58;;;;;;;;;;;0.60;99.90;;;;;;4923917;29;19926;-79
2022/03/06 09:37:26;;;;;;;;;;;0.70;99.90;;;;;;4923270;29;19933;-79
2022/03/06 09:39:53;;;;;;;;;;;0.80;99.90;;;;;;4916394;29;19934;-79
2022/03/06 09:42:20;;;;;;;;;;;0.90;99.90;;;;;;4921543;28;19935;-77
2022/03/06 09:44:47;;;;;;;;;;;0.90;99.90;;;;;;4922561;29;19977;-77
2022/03/06 09:47:14;;;;;;;;;;;1.10;99.90;;;;;;4925501;29;19927;-77
2022/03/06 09:49:43;;;;;;;;;;;1.00;99.90;;;;;;4923597;29;20619;-78
2022/03/06 09:52:11;;;;;;;;;;;1.20;99.90;;;;;;4921583;29;20391;-78
2022/03/06 09:54:38;;;;;;;;;;;1.10;99.90;;;;;;4908545;29;20006;-77
2022/03/06 09:57:05;;;;;;;;;;;1.00;99.90;;;;;;4924276;29;20021;-78
2022/03/06 09:59:33;;;;;;;;;;;1.10;99.90;;;;;;4921895;29;20418;-78
2022/03/06 10:02:00;;;;;;;;;;;1.10;99.90;;;;;;4924517;29;20379;-81
2022/03/06 10:04:29;;;;;;;;;;;1.10;99.90;;;;;;4922094;29;19969;-78
2022/03/06 10:07:04;;;;;;;;;;;1.20;99.90;;;;;;4921273;29;19927;-78
2022/03/06 10:09:33;;;;;;;;;;;1.10;99.90;;;;;;4927003;29;19942;-78
2022/03/06 10:12:00;;;;;;;;;;;1.20;99.90;;;;;;4923011;29;19931;-78
2022/03/06 10:14:36;;;;;;;;;;;1.10;99.90;;;;;;4922966;29;20471;-78
2022/03/06 10:17:10;;;;;;;;;;;1.20;99.90;;;;;;4930643;29;19935;-78
2022/03/06 10:19:54;;;;;;;;;;;1.10;99.90;;;;;;4921261;29;19945;-78
2022/03/06 10:22:25;;;;;;;;;;;1.20;99.90;;;;;;4920394;29;19927;-76
2022/03/06 10:24:55;;;;;;;;;;;1.20;99.90;;;;;;4922443;29;20517;-76
2022/03/06 10:27:36;;;;;;;;;;;1.20;99.90;;;;;;4922544;29;19934;-76
2022/03/06 10:30:07;;;;;;;;;;;1.10;99.90;;;;;;4926959;29;19935;-77
2022/03/06 10:32:42;;;;;;;;;;;1.20;99.90;;;;;;4923466;29;19926;-77
2022/03/06 10:35:12;;;;;;;;;;;1.20;99.90;;;;;;4912576;29;19927;-77
2022/03/06 10:37:39;;;;;;;;;;;1.20;99.90;;;;;;4911978;29;19927;-77
2022/03/06 10:40:14;;;;;;;;;;;1.20;99.90;;;;;;4928588;29;19931;-76
2022/03/06 10:42:42;;;;;;;;;;;1.20;99.90;;;;;;4919932;29;19941;-76
2022/03/06 10:45:23;;;;;;;;;;;1.20;99.90;;;;;;4921665;29;19927;-77
2022/03/06 10:47:50;;;;;;;;;;;1.20;99.90;;;;;;4924720;29;19951;-76
2022/03/06 10:50:21;;;;;;;;;;;1.20;99.90;;;;;;4923563;29;19941;-76
2022/03/06 10:52:48;;;;;;;;;;;1.20;99.90;;;;;;4919307;29;19994;-76
2022/03/06 10:55:31;;;;;;;;;;;1.20;99.90;;;;;;4921654;29;19935;-76
2022/03/06 10:57:58;;;;;;;;;;;1.30;99.90;;;;;;4920260;29;19935;-76
2022/03/06 11:00:25;;;;;;;;;;;1.30;99.90;;;;;;4926578;29;19963;-76
2022/03/06 11:02:53;;;;;;;;;;;1.30;99.90;;;;;;4925656;28;19945;-76
2022/03/06 11:05:20;;;;;;;;;;;1.20;99.50;;;;;;4924842;29;20430;-76
2022/03/06 11:07:47;;;;;;;;;;;1.10;99.90;;;;;;4910284;29;20018;-76
2022/03/06 11:10:16;;;;;;;;;;;1.10;99.60;;;;;;4918293;29;19934;-76
2022/03/06 11:12:43;;;;;;;;;;;1.00;99.80;;;;;;4916626;29;19927;-76
2022/03/06 11:15:10;;;;;;;;;;;1.00;99.60;;;;;;4915321;29;20022;-76
2022/03/06 11:17:38;;;;;;;;;;;1.00;99.70;;;;;;4916411;29;19946;-76
2022/03/06 11:20:05;;;;;;;;;;;1.00;99.80;;;;;;4918430;29;20054;-76
2022/03/06 11:22:35;;;;;;;;;;;1.10;99.90;;;;;;4920024;29;19978;-76
2022/03/06 11:25:07;;;;;;;;;;;1.10;99.90;;;;;;4925060;29;20038;-76
2022/03/06 11:27:45;;;;;;;;;;;1.10;99.90;;;;;;4915240;29;19962;-77
2022/03/06 11:30:18;;;;;;;;;;;1.10;99.90;;;;;;4918487;29;20025;-76
2022/03/06 11:32:46;;;;;;;;;;;1.10;99.80;;;;;;4924577;29;19978;-76
2022/03/06 11:35:16;;;;;;;;;;;1.10;99.90;;;;;;4926213;29;19982;-76
2022/03/06 11:37:50;;;;;;;;;;;1.10;99.90;;;;;;4919654;29;20383;-76
2022/03/06 11:43:11;;;;;;;;;;;1.10;99.90;;;;;;4968796;28;19937;-79
2022/03/06 11:45:46;;;;;;;;;;;1.20;99.90;;;;;;4984657;28;19929;-79
2022/03/06 11:48:22;;;;;;;;;;;1.20;99.90;;;;;;4991341;28;19926;-79
2022/03/06 11:51:04;;;;;;;;;;;1.20;99.90;;;;;;4990953;28;19937;-79
2022/03/06 11:53:46;;;;;;;;;;;1.20;99.90;;;;;;4989055;28;20033;-80
2022/03/06 11:56:32;;;;;;;;;;;1.30;99.90;;;;;;4985613;28;19926;-79
2022/03/06 11:59:00;;;;;;;;;;;1.30;99.90;;;;;;4967990;28;20396;-79
2022/03/06 12:01:28;;;;;;;;;;;1.30;99.70;;;;;;4984415;28;19925;-79
2022/03/06 12:03:55;;;;;;;;;;;1.40;99.90;;;;;;4996723;28;19933;-79
2022/03/06 12:06:23;;;;;;;;;;;1.40;99.30;;;;;;4991544;28;20313;-80
2022/03/06 12:08:52;;;;;;;;;;;1.40;99.50;;;;;;5058965;22;19926;-80
2022/03/06 12:11:21;;;;;;;;;;;1.40;99.70;;;;;;5017856;23;20022;-79
2022/03/06 12:13:50;;;;;;;;;;;1.40;99.60;;;;;;4947068;28;19934;-79
2022/03/06 12:16:18;;;;;;;;;;;1.40;99.50;;;;;;4944530;28;19926;-79
2022/03/06 12:19:00;;;;;;;;;;;1.40;99.60;;;;;;4943541;28;19926;-80
2022/03/06 12:21:27;;;;;;;;;;;1.50;99.60;;;;;;4927211;28;20317;-79
2022/03/06 12:24:09;;;;;;;;;;;1.50;99.60;;;;;;4943692;28;19986;-80
2022/03/06 12:26:42;;;;;;;;;;;1.60;99.70;;;;;;4943698;28;19941;-79
2022/03/06 12:29:09;;;;;;;;;;;1.60;98.40;;;;;;4942668;28;19942;-79
2022/03/06 12:31:39;;;;;;;;;;;1.70;99.60;;;;;;4925017;28;20021;-78
2022/03/06 12:34:20;;;;;;;;;;;1.60;99.20;;;;;;4946055;28;19981;-78
2022/03/06 12:36:53;;;;;;;;;;;1.70;99.60;;;;;;4933820;28;19926;-79
2022/03/06 12:39:21;;;;;;;;;;;1.70;99.60;;;;;;4943521;28;19940;-79
2022/03/06 12:41:47;;;;;;;;;;;1.70;99.60;;;;;;4944638;28;19941;-79
2022/03/06 12:44:21;;;;;;;;;;;1.70;99.70;;;;;;4927253;28;20025;-80
2022/03/06 12:46:50;;;;;;;;;;;1.70;99.80;;;;;;4945726;28;19926;-79
2022/03/06 12:49:17;;;;;;;;;;;1.70;99.30;;;;;;4946859;28;19926;-79
2022/03/06 12:51:48;;;;;;;;;;;1.80;99.80;;;;;;4942777;28;20457;-79
2022/03/06 12:54:19;;;;;;;;;;;1.80;99.90;;;;;;4929612;28;19970;-80
2022/03/06 12:56:46;;;;;;;;;;;1.80;99.90;;;;;;4936926;28;20418;-82
2022/03/06 12:59:16;;;;;;;;;;;1.90;98.40;;;;;;4974920;28;19973;-80
2022/03/06 13:01:44;;;;;;;;;;;2.00;98.70;;;;;;4950299;28;19962;-80
2022/03/06 13:04:15;;;;;;;;;;;2.00;99.40;;;;;;4959541;28;19930;-81
2022/03/06 13:06:42;;;;;;;;;;;2.00;99.50;;;;;;4958232;28;19934;-80
2022/03/06 13:09:10;;;;;;;;;;;1.90;99.80;;;;;;4946135;28;19991;-81
2022/03/06 13:11:40;;;;;;;;;;;2.00;99.70;;;;;;4943422;29;19926;-81
2022/03/06 13:14:09;;;;;;;;;;;1.90;99.90;;;;;;4939762;29;19926;-80
2022/03/06 13:16:36;;;;;;;;;;;2.00;99.90;;;;;;4952717;28;19937;-81
2022/03/06 13:19:05;;;;;;;;;;;2.00;99.90;;;;;;4953169;28;19934;-80
2022/03/06 13:21:37;;;;;;;;;;;2.00;99.90;;;;;;4946897;28;19927;-80
2022/03/06 13:24:05;;;;;;;;;;;2.00;99.90;;;;;;4946097;28;19930;-80
2022/03/06 13:26:32;;;;;;;;;;;2.10;99.90;;;;;;4942661;28;19930;-79
2022/03/06 13:29:00;;;;;;;;;;;2.10;99.90;;;;;;4947696;28;19953;-81
2022/03/06 13:31:27;;;;;;;;;;;2.10;99.90;;;;;;4947385;28;19936;-80
2022/03/06 13:34:01;;;;;;;;;;;2.20;99.90;;;;;;4934881;28;19938;-80
2022/03/06 13:36:27;;;;;;;;;;;2.20;99.90;;;;;;4944691;28;19982;-80
2022/03/06 13:39:00;;;;;;;;;;;2.20;99.90;;;;;;4940603;28;19980;-80
2022/03/06 13:41:28;;;;;;;;;;;2.20;99.70;;;;;;4958845;28;19962;-80
2022/03/06 13:43:55;;;;;;;;;;;2.20;99.90;;;;;;4957848;28;19927;-80
2022/03/06 13:46:23;;;;;;;;;;;2.30;99.80;;;;;;4950992;28;19927;-81
2022/03/06 13:48:51;;;;;;;;;;;2.20;99.80;;;;;;4963304;28;19950;-80
2022/03/06 13:51:19;;;;;;;;;;;2.30;99.90;;;;;;4947459;28;19942;-80
2022/03/06 13:53:52;;;;;;;;;;;2.30;99.90;;;;;;4935379;28;19927;-80
2022/03/06 13:56:27;;;;;;;;;;;2.30;99.90;;;;;;4963408;28;19935;-81
2022/03/06 13:58:54;;;;;;;;;;;2.30;99.90;;;;;;4955460;29;19950;-81
2022/03/06 14:01:25;;;;;;;;;;;2.40;99.90;;;;;;4962680;28;20170;-81
2022/03/06 14:03:58;;;;;;;;;;;2.30;99.90;;;;;;4956079;28;20329;-81
2022/03/06 14:06:33;;;;;;;;;;;2.40;99.90;;;;;;4957077;28;19941;-80
2022/03/06 14:09:00;;;;;;;;;;;2.50;99.80;;;;;;4967135;28;19933;-80
2022/03/06 14:11:37;;;;;;;;;;;2.50;99.50;;;;;;4957010;29;19958;-81
2022/03/06 14:14:32;;;;;;;;;;;2.50;99.70;;;;;;4963988;28;19966;-82
2022/03/06 14:20:13;;;;;;;;;;;2.50;99.90;;;;;;4956531;29;19957;-82
2022/03/06 14:45:56;;;;;;;;;;;2.70;99.90;;;;;;4904774;29;20084;-81
2022/03/06 14:55:35;;;;;;;;;;;2.70;99.90;;;;;;4929089;29;19918;-82
2022/03/06 14:58:12;;;;;;;;;;;2.70;99.80;;;;;;4913032;29;19935;-81
2022/03/06 15:00:55;;;;;;;;;;;2.70;99.90;;;;;;4899144;29;19945;-81
2022/03/06 15:15:05;;;;;;;;;;;2.80;99.60;;;;;;5483902;22;20345;-80
2022/03/06 15:17:34;;;;;;;;;;;2.80;99.50;;;;;;4978543;28;19967;-80
2022/03/06 15:20:02;;;;;;;;;;;2.80;99.10;;;;;;4988569;28;19925;-81
2022/03/06 15:22:52;;;;;;;;;;;2.80;99.40;;;;;;4981982;28;20443;-80
2022/03/06 15:25:44;;;;;;;;;;;2.80;99.30;;;;;;4975906;28;19942;-79
2022/03/06 15:28:13;;;;;;;;;;;2.80;99.30;;;;;;4977586;28;20402;-80
2022/03/06 15:33:56;;;;;;;;;;;2.80;99.10;;;;;;4975675;28;19933;-80